createdAt,value
2022-11-26T00:00:57.537Z,16.60
2022-11-26T00:02:14.933Z,13.90
2022-11-26T00:03:17.440Z,13.95
2022-11-26T00:04:19.095Z,15.23
2022-11-26T00:05:22.288Z,15.55
2022-11-26T00:06:40.513Z,15.07
2022-11-26T00:07:44.880Z,15.82
2022-11-26T00:08:46.570Z,15.15
2022-11-26T00:09:49.653Z,15.30
2022-11-26T00:10:53.388Z,15.60
2022-11-26T00:11:54.964Z,14.57
2022-11-26T00:12:57.583Z,15.25
2022-11-26T00:13:59.159Z,14.75
2022-11-26T00:15:14.660Z,15.25
2022-11-26T00:16:16.620Z,14.10
2022-11-26T00:17:19.774Z,14.95
2022-11-26T00:18:26.844Z,13.73
2022-11-26T00:19:28.571Z,16.02
2022-11-26T00:20:31.380Z,16.58
2022-11-26T00:21:36.074Z,14.05
2022-11-26T00:22:51.455Z,13.70
2022-11-26T00:23:54.321Z,13.60
2022-11-26T00:24:56.311Z,13.00
2022-11-26T00:26:01.390Z,14.05
2022-11-26T00:27:02.965Z,15.35
2022-11-26T00:28:22.894Z,15.20
2022-11-26T00:29:24.465Z,14.68
2022-11-26T00:30:28.002Z,13.35
2022-11-26T00:31:29.655Z,13.63
2022-11-26T00:32:31.516Z,13.68
2022-11-26T00:33:33.685Z,14.70
2022-11-26T00:34:35.488Z,14.77
2022-11-26T00:35:37.292Z,15.43
2022-11-26T00:36:38.878Z,13.25
2022-11-26T00:37:44.573Z,12.52
2022-11-26T00:38:49.709Z,12.60
2022-11-26T00:39:52.071Z,13.13
2022-11-26T00:40:53.722Z,13.52
2022-11-26T00:41:55.431Z,13.43
2022-11-26T00:43:01.452Z,14.73
2022-11-26T00:44:04.081Z,12.80
2022-11-26T00:45:15.532Z,12.57
2022-11-26T00:46:20.011Z,12.75
2022-11-26T00:47:21.609Z,12.30
2022-11-26T00:48:23.145Z,12.25
2022-11-26T00:49:24.763Z,12.50
2022-11-26T00:50:27.666Z,12.35
2022-11-26T00:51:29.385Z,13.43
2022-11-26T00:52:34.509Z,13.73
2022-11-26T00:53:36.153Z,13.88
2022-11-26T00:54:38.036Z,12.07
2022-11-26T00:57:22.756Z,12.80
2022-11-26T00:58:28.758Z,13.55
2022-11-26T00:59:30.328Z,12.93
2022-11-26T01:00:34.447Z,11.50
2022-11-26T01:01:37.589Z,10.90
2022-11-26T01:02:39.413Z,11.93
2022-11-26T01:03:43.003Z,11.48
2022-11-26T01:04:44.640Z,10.80
2022-11-26T01:05:53.270Z,12.80
2022-11-26T01:06:54.884Z,17.52
2022-11-26T01:08:00.327Z,12.43
2022-11-26T01:09:04.773Z,12.10
2022-11-26T01:10:14.320Z,11.80
2022-11-26T01:11:18.581Z,11.48
2022-11-26T01:12:20.164Z,11.48
2022-11-26T01:13:21.811Z,12.45
2022-11-26T01:14:23.568Z,12.05
2022-11-26T01:15:26.613Z,10.27
2022-11-26T01:16:30.892Z,11.90
2022-11-26T01:17:32.602Z,11.18
2022-11-26T01:18:35.165Z,10.25
2022-11-26T01:19:36.812Z,10.00
2022-11-26T01:20:38.358Z,10.93
2022-11-26T01:21:40.540Z,9.75
2022-11-26T01:22:42.103Z,10.55
2022-11-26T01:23:43.737Z,9.50
2022-11-26T01:24:45.512Z,9.60
2022-11-26T01:25:47.811Z,8.70
2022-11-26T01:26:49.406Z,8.88
2022-11-26T01:27:51.675Z,9.68
2022-11-26T01:28:54.405Z,9.23
2022-11-26T01:29:55.983Z,9.48
2022-11-26T01:30:57.802Z,9.18
2022-11-26T01:31:59.530Z,10.32
2022-11-26T01:33:01.239Z,9.75
2022-11-26T01:34:02.967Z,10.38
2022-11-26T01:35:05.014Z,9.68
2022-11-26T01:36:28.703Z,9.75
2022-11-26T01:37:30.276Z,9.85
2022-11-26T01:38:31.862Z,10.35
2022-11-26T01:39:33.405Z,10.93
2022-11-26T01:40:54.531Z,9.25
2022-11-26T01:42:36.313Z,11.23
2022-11-26T01:43:42.639Z,11.95
2022-11-26T01:44:44.408Z,9.70
2022-11-26T01:45:46.163Z,11.02
2022-11-26T01:46:48.852Z,9.73
2022-11-26T01:47:50.745Z,8.95
2022-11-26T01:48:53.798Z,10.82
2022-11-26T01:50:26.530Z,9.68
2022-11-26T01:51:29.115Z,10.75
2022-11-26T01:52:30.814Z,10.45
2022-11-26T01:53:38.835Z,11.00
2022-11-26T01:54:43.295Z,11.90
2022-11-26T01:55:44.844Z,11.73
2022-11-26T01:56:50.803Z,10.65
2022-11-26T01:57:52.797Z,9.60
2022-11-26T01:59:03.020Z,11.20
2022-11-26T02:00:05.470Z,10.02
2022-11-26T02:01:07.678Z,12.00
2022-11-26T02:02:09.876Z,10.98
2022-11-26T02:03:12.355Z,10.85
2022-11-26T02:04:20.041Z,11.52
2022-11-26T02:05:25.776Z,11.70
2022-11-26T02:06:33.463Z,12.68
2022-11-26T02:07:36.140Z,11.27
2022-11-26T02:08:38.434Z,11.02
2022-11-26T02:09:40.769Z,10.07
2022-11-26T02:10:42.547Z,10.30
2022-11-26T02:11:44.684Z,11.77
2022-11-26T02:12:46.248Z,10.88
2022-11-26T02:13:51.997Z,12.07
2022-11-26T02:14:54.215Z,10.95
2022-11-26T02:16:35.387Z,11.85
2022-11-26T02:17:46.162Z,11.00
2022-11-26T02:19:02.241Z,10.07
2022-11-26T02:20:21.920Z,10.00
2022-11-26T02:21:28.101Z,9.57
2022-11-26T02:22:51.438Z,9.18
2022-11-26T02:24:23.401Z,9.30
2022-11-26T02:25:57.425Z,9.40
2022-11-26T02:27:08.020Z,8.43
2022-11-26T02:28:15.877Z,8.77
2022-11-26T02:29:27.638Z,9.13
2022-11-26T02:30:36.386Z,9.75
2022-11-26T02:31:37.979Z,9.20
2022-11-26T02:33:11.569Z,9.50
2022-11-26T02:34:22.751Z,9.25
2022-11-26T02:35:39.193Z,8.00
2022-11-26T02:36:48.641Z,8.20
2022-11-26T02:38:02.756Z,9.05
2022-11-26T02:39:15.459Z,8.80
2022-11-26T02:40:17.492Z,7.30
2022-11-26T02:41:19.526Z,8.05
2022-11-26T02:42:34.070Z,8.02
2022-11-26T02:43:37.779Z,7.38
2022-11-26T02:44:43.141Z,8.07
2022-11-26T02:45:50.722Z,7.22
2022-11-26T02:47:02.838Z,7.32
2022-11-26T02:48:09.539Z,7.05
2022-11-26T02:49:14.494Z,8.63
2022-11-26T02:50:24.055Z,8.20
2022-11-26T02:51:31.989Z,8.32
2022-11-26T02:52:39.645Z,8.43
2022-11-26T02:53:43.157Z,7.47
2022-11-26T02:54:46.066Z,8.27
2022-11-26T02:56:01.282Z,8.57
2022-11-26T02:57:07.114Z,8.65
2022-11-26T02:58:08.935Z,6.85
2022-11-26T02:59:11.902Z,8.30
2022-11-26T03:00:15.745Z,8.63
2022-11-26T03:01:30.127Z,8.40
2022-11-26T03:02:36.609Z,8.25
2022-11-26T03:03:46.484Z,8.60
2022-11-26T03:04:53.124Z,7.82
2022-11-26T03:05:59.065Z,7.35
2022-11-26T03:07:04.493Z,7.97
2022-11-26T03:08:07.236Z,8.43
2022-11-26T03:09:09.008Z,9.48
2022-11-26T03:10:10.820Z,8.05
2022-11-26T03:11:12.672Z,8.15
2022-11-26T03:12:14.393Z,8.80
2022-11-26T03:13:16.008Z,8.60
2022-11-26T03:14:17.715Z,8.75
2022-11-26T03:15:19.520Z,8.60
2022-11-26T03:16:21.079Z,7.72
2022-11-26T03:17:22.869Z,8.52
2022-11-26T03:18:24.837Z,7.43
2022-11-26T03:19:26.507Z,9.00
2022-11-26T03:20:28.191Z,8.15
2022-11-26T03:21:32.008Z,8.95
2022-11-26T03:22:33.798Z,9.60
2022-11-26T03:23:35.615Z,9.90
2022-11-26T03:24:37.737Z,8.85
2022-11-26T03:25:39.519Z,8.13
2022-11-26T03:26:41.080Z,8.88
2022-11-26T03:27:42.658Z,7.80
2022-11-26T03:28:44.354Z,7.70
2022-11-26T03:29:45.998Z,7.47
2022-11-26T03:30:50.138Z,7.80
2022-11-26T03:31:51.989Z,9.45
2022-11-26T03:32:53.831Z,7.97
2022-11-26T03:33:55.434Z,8.18
2022-11-26T03:34:57.038Z,8.48
2022-11-26T03:35:58.602Z,10.20
2022-11-26T03:37:00.178Z,9.13
2022-11-26T03:38:01.875Z,9.52
2022-11-26T03:39:03.830Z,6.72
2022-11-26T03:40:07.043Z,7.95
2022-11-26T03:41:08.685Z,9.57
2022-11-26T03:42:10.253Z,10.20
2022-11-26T03:43:11.885Z,7.80
2022-11-26T03:44:14.369Z,7.93
2022-11-26T03:45:16.014Z,9.75
2022-11-26T03:46:17.909Z,9.73
2022-11-26T03:47:19.641Z,9.50
2022-11-26T03:48:21.518Z,8.20
2022-11-26T03:49:23.195Z,7.78
2022-11-26T03:50:24.757Z,7.07
2022-11-26T03:51:26.358Z,6.85
2022-11-26T03:52:27.977Z,7.40
2022-11-26T03:53:29.777Z,8.00
2022-11-26T03:54:31.415Z,7.50
2022-11-26T03:55:33.153Z,8.18
2022-11-26T03:56:34.754Z,8.88
2022-11-26T03:57:36.772Z,7.73
2022-11-26T03:58:38.379Z,8.27
2022-11-26T03:59:39.962Z,7.80
2022-11-26T04:00:41.698Z,8.68
2022-11-26T04:01:43.316Z,8.63
2022-11-26T04:02:45.050Z,8.80
2022-11-26T04:03:46.742Z,8.50
2022-11-26T04:04:48.509Z,8.45
2022-11-26T04:05:50.172Z,8.00
2022-11-26T04:06:51.871Z,8.30
2022-11-26T04:07:53.458Z,6.93
2022-11-26T04:08:55.137Z,6.70
2022-11-26T04:09:56.800Z,7.45
2022-11-26T04:10:58.333Z,7.88
2022-11-26T04:12:00.796Z,7.03
2022-11-26T04:13:02.365Z,7.20
2022-11-26T04:14:03.972Z,8.02
2022-11-26T04:15:06.074Z,8.32
2022-11-26T04:16:08.095Z,7.65
2022-11-26T04:17:09.669Z,7.45
2022-11-26T04:18:11.182Z,7.95
2022-11-26T04:19:12.828Z,7.45
2022-11-26T04:20:14.523Z,8.65
2022-11-26T04:21:16.107Z,10.48
2022-11-26T04:22:17.709Z,9.50
2022-11-26T04:23:19.899Z,7.07
2022-11-26T04:24:21.428Z,8.80
2022-11-26T04:25:23.060Z,7.35
2022-11-26T04:26:25.019Z,8.75
2022-11-26T04:27:26.565Z,7.32
2022-11-26T04:28:28.203Z,8.35
2022-11-26T04:29:29.819Z,8.25
2022-11-26T04:30:31.563Z,9.15
2022-11-26T04:31:33.220Z,8.68
2022-11-26T04:32:34.978Z,7.88
2022-11-26T04:33:36.580Z,9.30
2022-11-26T04:34:38.374Z,8.05
2022-11-26T04:35:40.218Z,8.05
2022-11-26T04:36:41.907Z,8.20
2022-11-26T04:37:43.628Z,8.60
2022-11-26T04:38:45.197Z,7.85
2022-11-26T04:39:46.798Z,7.88
2022-11-26T04:40:48.526Z,8.45
2022-11-26T04:41:51.033Z,8.43
2022-11-26T04:42:52.631Z,8.73
2022-11-26T04:43:54.203Z,7.95
2022-11-26T04:44:55.875Z,8.85
2022-11-26T04:45:57.527Z,9.05
2022-11-26T04:46:59.294Z,7.35
2022-11-26T04:48:00.865Z,8.15
2022-11-26T04:49:02.465Z,8.75
2022-11-26T04:50:04.463Z,8.40
2022-11-26T04:51:06.257Z,8.18
2022-11-26T04:52:08.241Z,9.02
2022-11-26T04:53:09.804Z,9.43
2022-11-26T04:54:13.204Z,10.10
2022-11-26T04:55:16.635Z,10.15
2022-11-26T04:56:18.249Z,10.05
2022-11-26T04:57:19.826Z,8.90
2022-11-26T04:58:21.961Z,9.35
2022-11-26T04:59:23.784Z,8.73
2022-11-26T05:00:25.718Z,8.20
2022-11-26T05:01:27.396Z,9.93
2022-11-26T05:02:29.203Z,9.50
2022-11-26T05:03:30.931Z,9.20
2022-11-26T05:04:32.565Z,9.88
2022-11-26T05:05:34.638Z,10.55
2022-11-26T05:06:36.303Z,9.85
2022-11-26T05:07:38.102Z,10.25
2022-11-26T05:08:39.690Z,9.25
2022-11-26T05:09:41.301Z,10.43
2022-11-26T05:10:42.991Z,15.88
2022-11-26T05:11:44.654Z,15.98
2022-11-26T05:12:46.346Z,18.23
2022-11-26T05:13:47.990Z,20.50
2022-11-26T05:14:49.576Z,19.98
2022-11-26T05:15:51.270Z,21.23
2022-11-26T05:16:52.926Z,19.60
2022-11-26T05:17:54.516Z,16.77
2022-11-26T05:18:56.419Z,15.10
2022-11-26T05:19:58.207Z,14.13
2022-11-26T05:20:59.830Z,12.20
2022-11-26T05:22:01.461Z,13.10
2022-11-26T05:23:03.278Z,12.45
2022-11-26T05:24:05.286Z,11.88
2022-11-26T05:25:07.207Z,11.27
2022-11-26T05:26:08.810Z,11.07
2022-11-26T05:27:10.346Z,12.55
2022-11-26T05:29:56.648Z,12.15
2022-11-26T05:30:59.965Z,13.43
2022-11-26T05:32:01.665Z,13.95
2022-11-26T05:33:03.467Z,13.88
2022-11-26T05:34:05.182Z,14.68
2022-11-26T05:35:07.069Z,14.48
2022-11-26T05:36:09.023Z,10.18
2022-11-26T05:37:10.725Z,11.77
2022-11-26T05:38:12.294Z,10.80
2022-11-26T05:39:13.853Z,11.70
2022-11-26T05:40:15.506Z,14.18
2022-11-26T05:41:17.080Z,16.50
2022-11-26T05:42:18.707Z,14.88
2022-11-26T05:43:20.346Z,12.95
2022-11-26T05:44:21.978Z,14.02
2022-11-26T05:45:23.565Z,13.15
2022-11-26T05:46:25.258Z,12.80
2022-11-26T05:47:26.846Z,11.48
2022-11-26T05:48:28.470Z,12.73
2022-11-26T05:49:30.259Z,12.13
2022-11-26T05:50:32.660Z,11.38
2022-11-26T05:51:34.457Z,12.20
2022-11-26T05:52:36.155Z,11.15
2022-11-26T05:53:37.956Z,11.40
2022-11-26T05:54:39.947Z,12.70
2022-11-26T05:55:41.710Z,14.43
2022-11-26T05:56:44.127Z,13.52
2022-11-26T05:57:45.784Z,13.85
2022-11-26T05:58:47.342Z,14.05
2022-11-26T05:59:51.821Z,15.38
2022-11-26T06:00:53.416Z,13.93
2022-11-26T06:01:55.307Z,15.50
2022-11-26T06:02:57.040Z,14.88
2022-11-26T06:03:58.772Z,14.55
2022-11-26T06:05:00.352Z,14.65
2022-11-26T06:06:02.607Z,12.35
2022-11-26T06:07:04.293Z,14.98
2022-11-26T06:08:07.029Z,12.75
2022-11-26T06:09:08.696Z,13.48
2022-11-26T06:10:10.925Z,12.95
2022-11-26T06:11:15.501Z,15.57
2022-11-26T06:12:17.153Z,13.55
2022-11-26T06:13:18.769Z,14.73
2022-11-26T06:14:20.417Z,13.43
2022-11-26T06:15:22.035Z,13.75
2022-11-26T06:16:23.712Z,15.82
2022-11-26T06:17:25.309Z,14.07
2022-11-26T06:18:27.048Z,12.50
2022-11-26T06:19:28.604Z,12.43
2022-11-26T06:20:30.236Z,14.02
2022-11-26T06:21:31.940Z,14.90
2022-11-26T06:22:41.890Z,13.80
2022-11-26T06:23:51.655Z,14.85
2022-11-26T06:24:56.133Z,15.48
2022-11-26T06:25:57.777Z,14.68
2022-11-26T06:26:59.435Z,16.35
2022-11-26T06:28:00.998Z,17.45
2022-11-26T06:29:03.026Z,17.15
2022-11-26T06:30:05.801Z,16.13
2022-11-26T06:31:10.026Z,19.13
2022-11-26T06:32:11.676Z,17.65
2022-11-26T06:33:13.613Z,19.20
2022-11-26T06:34:16.003Z,18.17
2022-11-26T06:35:17.619Z,16.42
2022-11-26T06:36:19.186Z,16.02
2022-11-26T06:37:20.919Z,16.42
2022-11-26T06:38:22.446Z,14.50
2022-11-26T06:39:24.035Z,16.90
2022-11-26T06:40:25.617Z,15.05
2022-11-26T06:41:27.172Z,16.38
2022-11-26T06:42:29.702Z,16.40
2022-11-26T06:43:32.150Z,15.95
2022-11-26T06:44:36.857Z,14.88
2022-11-26T06:45:38.719Z,17.67
2022-11-26T06:46:40.768Z,19.75
2022-11-26T06:47:42.409Z,18.73
2022-11-26T06:48:44.160Z,21.00
2022-11-26T06:49:46.050Z,18.85
2022-11-26T06:50:47.596Z,21.17
2022-11-26T06:51:49.176Z,20.35
2022-11-26T06:52:54.701Z,19.75
2022-11-26T06:53:56.332Z,20.27
2022-11-26T06:54:58.021Z,19.02
2022-11-26T06:56:01.125Z,19.67
2022-11-26T06:57:02.692Z,18.55
2022-11-26T06:58:04.299Z,17.75
2022-11-26T06:59:05.906Z,18.05
2022-11-26T07:00:08.245Z,20.20
2022-11-26T07:01:16.933Z,19.10
2022-11-26T07:02:18.510Z,20.35
2022-11-26T07:03:23.928Z,20.83
2022-11-26T07:04:27.184Z,20.50
2022-11-26T07:05:29.124Z,20.33
2022-11-26T07:06:32.919Z,17.63
2022-11-26T07:07:37.895Z,16.92
2022-11-26T07:08:39.498Z,16.67
2022-11-26T07:09:41.318Z,17.35
2022-11-26T07:10:48.680Z,16.50
2022-11-26T07:11:50.757Z,16.83
2022-11-26T07:12:52.321Z,19.02
2022-11-26T07:13:54.643Z,17.30
2022-11-26T07:14:56.195Z,19.38
2022-11-26T07:16:02.833Z,21.50
2022-11-26T07:17:04.656Z,22.20
2022-11-26T07:18:06.300Z,18.60
2022-11-26T07:19:11.753Z,17.80
2022-11-26T07:20:14.254Z,19.02
2022-11-26T07:21:15.922Z,17.35
2022-11-26T07:22:17.635Z,17.80
2022-11-26T07:23:19.235Z,18.17
2022-11-26T07:24:20.832Z,16.90
2022-11-26T07:25:22.439Z,15.88
2022-11-26T07:26:24.365Z,17.25
2022-11-26T07:27:25.945Z,16.88
2022-11-26T07:28:28.800Z,17.45
2022-11-26T07:29:30.551Z,17.52
2022-11-26T07:30:32.074Z,17.38
2022-11-26T07:31:33.945Z,16.48
2022-11-26T07:32:35.632Z,20.20
2022-11-26T07:33:37.564Z,22.88
2022-11-26T07:34:39.365Z,17.90
2022-11-26T07:35:41.190Z,18.58
2022-11-26T07:36:43.511Z,17.05
2022-11-26T07:37:45.222Z,15.45
2022-11-26T07:38:47.070Z,16.60
2022-11-26T07:39:49.516Z,16.02
2022-11-26T07:40:51.045Z,17.50
2022-11-26T07:41:52.623Z,16.38
2022-11-26T07:42:54.294Z,17.65
2022-11-26T07:43:56.122Z,18.20
2022-11-26T07:44:57.671Z,17.42
2022-11-26T07:46:01.958Z,18.40
2022-11-26T07:47:04.471Z,19.23
2022-11-26T07:48:06.411Z,21.25
2022-11-26T07:49:08.370Z,22.90
2022-11-26T07:50:10.415Z,22.33
2022-11-26T07:51:26.033Z,25.25
2022-11-26T07:52:27.633Z,26.30
2022-11-26T07:53:30.853Z,27.30
2022-11-26T07:54:32.472Z,26.73
2022-11-26T07:55:34.176Z,25.55
2022-11-26T07:56:36.151Z,25.48
2022-11-26T07:57:37.866Z,25.58
2022-11-26T07:58:39.564Z,23.63
2022-11-26T07:59:41.602Z,24.70
2022-11-26T08:00:43.342Z,26.73
2022-11-26T08:01:45.081Z,26.15
2022-11-26T08:02:47.041Z,25.50
2022-11-26T08:03:50.252Z,23.00
2022-11-26T08:04:51.923Z,24.65
2022-11-26T08:05:53.457Z,23.00
2022-11-26T08:06:55.007Z,23.00
2022-11-26T08:07:56.776Z,26.25
2022-11-26T08:09:00.299Z,22.70
2022-11-26T08:10:02.351Z,21.85
2022-11-26T08:11:11.285Z,22.10
2022-11-26T08:12:12.834Z,18.50
2022-11-26T08:13:14.401Z,18.35
2022-11-26T08:14:15.944Z,18.05
2022-11-26T08:15:17.954Z,17.02
2022-11-26T08:16:19.611Z,19.73
2022-11-26T08:17:21.529Z,19.02
2022-11-26T08:18:23.088Z,17.67
2022-11-26T08:19:24.782Z,17.30
2022-11-26T08:20:29.018Z,17.23
2022-11-26T08:21:31.000Z,15.95
2022-11-26T08:22:33.453Z,18.27
2022-11-26T08:23:35.465Z,15.30
2022-11-26T08:24:37.749Z,16.10
2022-11-26T08:25:59.236Z,15.35
2022-11-26T08:27:01.234Z,14.07
2022-11-26T08:28:02.850Z,16.10
2022-11-26T08:29:04.508Z,18.60
2022-11-26T08:30:07.307Z,17.60
2022-11-26T08:31:11.285Z,20.42
2022-11-26T08:32:13.053Z,20.88
2022-11-26T08:33:14.906Z,21.52
2022-11-26T08:34:17.595Z,23.58
2022-11-26T08:35:19.214Z,19.83
2022-11-26T08:36:20.837Z,20.10
2022-11-26T08:37:22.736Z,19.85
2022-11-26T08:38:25.092Z,20.10
2022-11-26T08:39:26.950Z,18.58
2022-11-26T08:40:28.453Z,16.30
2022-11-26T08:41:30.112Z,15.15
2022-11-26T08:42:31.727Z,15.50
2022-11-26T08:44:04.519Z,15.35
2022-11-26T08:44:57.088Z,13.32
2022-11-26T08:46:00.317Z,13.75
2022-11-26T08:47:01.971Z,14.90
2022-11-26T08:48:03.874Z,13.90
2022-11-26T08:49:07.362Z,14.35
2022-11-26T08:50:09.665Z,14.43
2022-11-26T08:51:12.557Z,13.30
2022-11-26T08:52:14.132Z,12.65
2022-11-26T08:53:15.722Z,13.40
2022-11-26T08:54:17.412Z,12.18
2022-11-26T08:55:23.699Z,12.57
2022-11-26T08:56:26.020Z,13.27
2022-11-26T08:57:27.728Z,13.63
2022-11-26T08:58:29.525Z,12.73
2022-11-26T08:59:31.170Z,12.85
2022-11-26T09:00:32.839Z,13.30
2022-11-26T09:01:34.978Z,13.75
2022-11-26T09:02:36.613Z,13.35
2022-11-26T09:03:39.067Z,18.98
2022-11-26T09:04:41.792Z,19.77
2022-11-26T09:05:43.427Z,23.80
2022-11-26T09:06:44.994Z,24.88
2022-11-26T09:07:49.161Z,26.88
2022-11-26T09:09:09.517Z,34.97
2022-11-26T09:10:11.614Z,32.00
2022-11-26T09:11:13.234Z,29.00
2022-11-26T09:12:14.856Z,34.08
2022-11-26T09:13:20.891Z,17.85
2022-11-26T09:14:25.103Z,17.45
2022-11-26T09:15:26.726Z,15.43
2022-11-26T09:16:28.863Z,15.65
2022-11-26T09:17:30.714Z,16.10
2022-11-26T09:18:32.301Z,15.95
2022-11-26T09:19:33.976Z,14.40
2022-11-26T09:20:35.545Z,15.88
2022-11-26T09:21:37.212Z,13.50
2022-11-26T09:22:39.018Z,12.63
2022-11-26T09:23:40.705Z,12.95
2022-11-26T09:24:42.392Z,11.73
2022-11-26T09:25:43.995Z,12.57
2022-11-26T09:26:45.971Z,13.25
2022-11-26T09:27:47.551Z,11.43
2022-11-26T09:28:49.436Z,12.63
2022-11-26T09:29:51.054Z,11.73
2022-11-26T09:30:57.758Z,10.75
2022-11-26T09:33:21.195Z,12.93
2022-11-26T09:34:23.298Z,11.13
2022-11-26T09:35:25.234Z,13.15
2022-11-26T09:36:27.395Z,11.13
2022-11-26T09:37:31.775Z,9.95
2022-11-26T09:38:34.335Z,10.85
2022-11-26T09:39:35.970Z,11.23
2022-11-26T09:40:54.065Z,10.07
2022-11-26T09:42:12.594Z,13.32
2022-11-26T09:43:28.200Z,10.68
2022-11-26T09:44:48.306Z,10.80
2022-11-26T09:45:55.775Z,9.05
2022-11-26T09:47:12.523Z,9.88
2022-11-26T09:48:20.176Z,10.27
2022-11-26T09:49:22.627Z,9.43
2022-11-26T09:50:28.893Z,10.20
2022-11-26T09:51:33.085Z,8.88
2022-11-26T09:53:08.952Z,8.82
2022-11-26T09:54:20.610Z,7.60
2022-11-26T09:55:31.967Z,7.43
2022-11-26T09:56:34.161Z,7.50
2022-11-26T09:57:42.013Z,9.13
2022-11-26T09:58:54.554Z,8.85
2022-11-26T09:59:56.636Z,7.70
2022-11-26T10:01:00.059Z,7.80
2022-11-26T10:02:01.827Z,7.50
2022-11-26T10:03:13.263Z,6.60
2022-11-26T10:04:24.373Z,8.33
2022-11-26T10:06:02.411Z,7.13
2022-11-26T10:07:22.346Z,12.25
2022-11-26T10:08:52.039Z,11.77
2022-11-26T10:10:12.660Z,13.47
2022-11-26T10:11:49.335Z,14.03
2022-11-26T10:13:18.387Z,8.35
2022-11-26T10:15:08.722Z,6.40
2022-11-26T10:16:27.479Z,5.80
2022-11-26T10:17:47.403Z,5.50
2022-11-26T10:19:07.550Z,6.33
2022-11-26T10:20:47.007Z,7.00
2022-11-26T10:22:00.136Z,6.65
2022-11-26T10:23:14.048Z,6.20
2022-11-26T10:24:36.177Z,5.40
2022-11-26T10:25:46.522Z,6.40
2022-11-26T10:26:49.488Z,5.97
2022-11-26T10:27:53.830Z,6.72
2022-11-26T10:29:19.936Z,12.98
2022-11-26T10:30:25.460Z,12.52
2022-11-26T10:31:31.245Z,16.03
2022-11-26T10:32:38.986Z,23.37
2022-11-26T10:34:04.933Z,12.17
2022-11-26T10:35:06.956Z,9.17
2022-11-26T10:36:23.193Z,9.87
2022-11-26T10:37:27.459Z,10.65
2022-11-26T10:38:29.154Z,8.30
2022-11-26T10:39:30.817Z,6.90
2022-11-26T10:40:32.671Z,6.10
2022-11-26T10:41:36.994Z,9.43
2022-11-26T10:42:44.445Z,10.73
2022-11-26T10:43:46.084Z,8.13
2022-11-26T10:44:50.280Z,7.83
2022-11-26T10:45:54.767Z,8.53
2022-11-26T10:46:57.962Z,7.40
2022-11-26T10:48:27.329Z,7.40
2022-11-26T10:49:29.955Z,8.03
2022-11-26T10:50:50.562Z,8.00
2022-11-26T10:51:57.862Z,8.50
2022-11-26T10:53:05.058Z,6.70
2022-11-26T10:54:18.648Z,8.60
2022-11-26T10:55:23.443Z,8.23
2022-11-26T10:56:46.844Z,7.93
2022-11-26T10:57:53.552Z,7.23
2022-11-26T10:59:01.951Z,6.07
2022-11-26T11:00:04.375Z,6.23
2022-11-26T11:01:07.297Z,7.07
2022-11-26T11:02:33.380Z,6.47
2022-11-26T11:05:10.284Z,5.63
2022-11-26T11:06:19.351Z,5.90
2022-11-26T11:07:34.598Z,6.10
2022-11-26T11:08:36.321Z,6.03
2022-11-26T11:09:38.319Z,5.33
2022-11-26T11:10:54.046Z,6.20
2022-11-26T11:12:16.476Z,6.00
2022-11-26T11:13:18.213Z,6.00
2022-11-26T11:14:29.158Z,5.80
2022-11-26T11:15:35.389Z,5.30
2022-11-26T11:16:46.034Z,4.30
2022-11-26T11:18:21.979Z,6.43
2022-11-26T11:19:28.233Z,5.70
2022-11-26T11:20:38.739Z,5.80
2022-11-26T11:21:48.070Z,5.80
2022-11-26T11:22:58.395Z,4.77
2022-11-26T11:24:09.349Z,5.13
2022-11-26T11:25:32.463Z,4.70
2022-11-26T11:26:46.174Z,5.17
2022-11-26T11:27:48.890Z,5.33
2022-11-26T11:28:55.548Z,4.40
2022-11-26T11:30:01.982Z,3.90
2022-11-26T11:31:10.949Z,4.80
2022-11-26T11:32:39.239Z,4.80
2022-11-26T11:33:41.370Z,7.70
2022-11-26T11:34:43.124Z,12.30
2022-11-26T11:35:44.846Z,11.87
2022-11-26T11:37:18.657Z,10.40
2022-11-26T11:38:25.701Z,16.83
2022-11-26T11:39:35.449Z,18.40
2022-11-26T11:40:42.307Z,9.93
2022-11-26T11:41:48.975Z,12.07
2022-11-26T11:42:54.509Z,13.53
2022-11-26T11:44:14.012Z,14.03
2022-11-26T11:45:28.845Z,8.33
2022-11-26T11:47:08.092Z,6.03
2022-11-26T11:48:15.554Z,4.90
2022-11-26T11:49:42.419Z,5.37
2022-11-26T11:50:58.231Z,7.13
2022-11-26T11:52:22.153Z,4.50
2022-11-26T11:53:42.245Z,4.30
2022-11-26T11:55:02.178Z,4.20
2022-11-26T11:56:22.240Z,5.03
2022-11-26T11:57:42.086Z,4.90
2022-11-26T11:59:05.500Z,4.67
2022-11-26T12:00:14.155Z,4.10
2022-11-26T12:01:27.816Z,3.57
2022-11-26T12:02:50.956Z,3.40
2022-11-26T12:04:10.431Z,3.03
2022-11-26T12:05:36.751Z,4.03
2022-11-26T12:06:40.146Z,3.63
2022-11-26T12:07:53.968Z,4.10
2022-11-26T12:09:24.596Z,4.63
2022-11-26T12:10:49.044Z,3.67
2022-11-26T12:12:00.779Z,3.23
2022-11-26T12:13:06.018Z,3.77
2022-11-26T12:14:17.758Z,3.50
2022-11-26T12:15:33.997Z,3.17
2022-11-26T12:16:42.502Z,3.50
2022-11-26T12:17:46.876Z,2.70
2022-11-26T12:19:09.675Z,3.60
2022-11-26T12:20:36.538Z,3.80
2022-11-26T12:21:51.543Z,3.57
2022-11-26T12:23:24.924Z,3.13
2022-11-26T12:24:54.406Z,3.17
2022-11-26T12:26:12.985Z,3.60
2022-11-26T12:27:51.474Z,4.63
2022-11-26T12:29:06.664Z,4.37
2022-11-26T12:30:17.131Z,4.40
2022-11-26T12:31:37.354Z,5.17
2022-11-26T12:32:51.012Z,4.80
2022-11-26T12:33:59.601Z,4.97
2022-11-26T12:35:12.346Z,5.13
2022-11-26T12:36:31.848Z,4.93
2022-11-26T12:37:40.478Z,3.67
2022-11-26T12:38:53.695Z,5.00
2022-11-26T12:40:29.065Z,4.67
2022-11-26T12:41:49.688Z,4.63
2022-11-26T12:43:20.621Z,4.90
2022-11-26T12:44:32.661Z,5.20
2022-11-26T12:46:11.062Z,4.60
2022-11-26T12:47:21.781Z,4.30
2022-11-26T12:48:54.761Z,4.07
2022-11-26T12:50:05.770Z,4.43
2022-11-26T12:51:25.551Z,4.67
2022-11-26T12:52:52.157Z,4.60
2022-11-26T12:54:05.877Z,4.70
2022-11-26T12:55:35.637Z,5.10
2022-11-26T12:56:59.653Z,5.17
2022-11-26T12:58:24.206Z,4.90
2022-11-26T12:59:40.930Z,4.90
2022-11-26T13:00:43.102Z,4.70
2022-11-26T13:01:44.978Z,5.63
2022-11-26T13:02:51.149Z,4.97
2022-11-26T13:04:08.476Z,4.60
2022-11-26T13:05:21.997Z,4.53
2022-11-26T13:06:35.734Z,4.50
2022-11-26T13:08:15.592Z,4.60
2022-11-26T13:09:45.143Z,4.73
2022-11-26T13:11:14.598Z,4.37
2022-11-26T13:12:29.772Z,4.70
2022-11-26T13:13:40.644Z,6.03
2022-11-26T13:14:54.299Z,3.97
2022-11-26T13:16:08.075Z,4.73
2022-11-26T13:17:16.760Z,4.83
2022-11-26T13:18:31.898Z,4.07
2022-11-26T13:19:42.025Z,4.50
2022-11-26T13:21:19.277Z,5.07
2022-11-26T13:22:48.852Z,4.80
2022-11-26T13:24:02.367Z,5.73
2022-11-26T13:25:12.885Z,4.37
2022-11-26T13:26:36.941Z,5.00
2022-11-26T13:28:00.791Z,5.20
2022-11-26T13:29:38.615Z,5.97
2022-11-26T13:31:04.429Z,5.47
2022-11-26T13:32:58.061Z,5.60
2022-11-26T13:34:33.701Z,4.70
2022-11-26T13:36:12.998Z,5.53
2022-11-26T13:37:36.130Z,5.00
2022-11-26T13:39:03.547Z,6.30
2022-11-26T13:40:37.601Z,6.00
2022-11-26T13:41:58.049Z,6.43
2022-11-26T13:43:16.943Z,5.50
2022-11-26T13:44:47.272Z,9.10
2022-11-26T13:46:03.265Z,16.53
2022-11-26T13:47:26.284Z,23.30
2022-11-26T13:48:42.745Z,12.90
2022-11-26T13:49:58.588Z,11.83
2022-11-26T13:51:32.615Z,18.37
2022-11-26T13:53:02.135Z,11.33
2022-11-26T13:54:15.871Z,12.80
2022-11-26T13:55:24.301Z,8.27
2022-11-26T13:56:32.150Z,8.23
2022-11-26T13:57:56.926Z,7.60
2022-11-26T13:59:03.257Z,7.13
2022-11-26T14:00:05.824Z,6.30
2022-11-26T14:01:28.431Z,6.67
2022-11-26T14:02:33.296Z,7.40
2022-11-26T14:03:49.155Z,7.80
2022-11-26T14:04:53.499Z,7.23
2022-11-26T14:05:57.384Z,6.90
2022-11-26T14:07:04.809Z,7.17
2022-11-26T14:08:37.526Z,8.27
2022-11-26T14:09:42.195Z,6.63
2022-11-26T14:10:43.903Z,7.60
2022-11-26T14:11:45.482Z,7.35
2022-11-26T14:13:02.691Z,7.97
2022-11-26T14:14:26.190Z,13.27
2022-11-26T14:15:42.983Z,8.20
2022-11-26T14:17:02.984Z,7.10
2022-11-26T14:18:05.271Z,7.63
2022-11-26T14:19:06.932Z,12.90
2022-11-26T14:20:09.397Z,10.10
2022-11-26T14:21:12.911Z,9.65
2022-11-26T14:22:20.703Z,14.13
2022-11-26T14:23:44.647Z,7.53
2022-11-26T14:24:49.414Z,13.05
2022-11-26T14:25:51.080Z,8.57
2022-11-26T14:26:53.249Z,7.90
2022-11-26T14:27:55.811Z,7.60
2022-11-26T14:29:18.035Z,10.35
2022-11-26T14:30:22.475Z,8.60
2022-11-26T14:31:32.538Z,8.15
2022-11-26T14:32:39.721Z,8.82
2022-11-26T14:33:45.277Z,8.07
2022-11-26T14:34:53.087Z,8.23
2022-11-26T14:35:56.799Z,7.47
2022-11-26T14:37:00.282Z,7.68
2022-11-26T14:38:05.236Z,6.90
2022-11-26T14:39:09.982Z,6.68
2022-11-26T14:40:23.555Z,7.18
2022-11-26T14:41:25.303Z,7.30
2022-11-26T14:42:27.967Z,6.82
2022-11-26T14:43:29.808Z,8.88